Pleasantville, IA (50225)

7:00 PM CST on December 04, 2016 (GMT -0600)
Rural Pleasantville | | Change Station

Elev 843 ft 41.36 °N, 93.27 °W | Updated 22 seconds ago

Overcast
Overcast
33.4 °F
Feels Like 33 °F
N
0.0
Wind Variable Wind from ENE

Today
High -- | Low -- °F
--% Chance of Precip.
Yesterday
High -- | Low -- °F
Precip. -- in
Pressure 29.92 in
Visibility 10.0 miles
Clouds Overcast 1100 ft
Windchill 33 °F
Dew Point 33 °F
Humidity 98%
Rainfall 0.00 in
Snow Depth Not available.
7:23 AM 4:43 PM
Waxing Crescent, 27% visible
METAR KOXV 050055Z AUTO 23009G16KT 10SM OVC011 02/00 A2992 RMK AO2
Pressure 29.92 in
Visibility 10.0 miles
Clouds Overcast 1100 ft
Windchill 33 °F
Dew Point 33 °F
Humidity 98%
Rainfall 0.00 in
Snow Depth Not available.
7:23 AM 4:43 PM
Waxing Crescent, 27% visible
METAR KOXV 050055Z AUTO 23009G16KT 10SM OVC011 02/00 A2992 RMK AO2

10-Day Weather Forecast

Almanac

Astronomy

Dec. 04, 2016 Rise Set
Actual Time
Civil Twilight
Nautical Twilight
Astronomical Twilight
Moon
Length of Visible Light
Length of Day
Tomorrow will be .
, % of the Moon is Illuminated

Today's Extremes

State Highs State Lows

Community

WunderPhotos

Upload Photos

1,955,729 photos uploaded!

WunderBlog® & News

Nearby

Air Quality

  Air Quality AQ Index Pollutant
Not available.

Snow Depth

Station Depth Elevation

Earthquake Activity

City Distance Mag. Time & Date
Minimum magnitude displayed is 2.5.

Coastal Water Temperatures

Place Temperature

Stations

Nearby Weather Stations

Station Location Temp. Windchill Dew Point Humidity Wind Precip. Elev Updated Type
                   

Watches & Warnings

There are currently no watches in effect.